sensor_id;sensor_type;location;lat;lon;timestamp;P1;durP1;ratioP1;P2;durP2;ratioP2
3959;SDS011;1994;48.640;8.894;2023-02-28T00:01:08;2.80;;;1.80;;
3959;SDS011;1994;48.640;8.894;2023-02-28T00:03:37;3.30;;;2.43;;
3959;SDS011;1994;48.640;8.894;2023-02-28T00:06:08;3.67;;;2.30;;
3959;SDS011;1994;48.640;8.894;2023-02-28T00:08:35;2.03;;;1.83;;
3959;SDS011;1994;48.640;8.894;2023-02-28T00:11:02;2.23;;;2.10;;
3959;SDS011;1994;48.640;8.894;2023-02-28T00:13:30;2.80;;;1.93;;
3959;SDS011;1994;48.640;8.894;2023-02-28T00:16:02;3.40;;;3.10;;
3959;SDS011;1994;48.640;8.894;2023-02-28T00:18:35;9.70;;;1.83;;
3959;SDS011;1994;48.640;8.894;2023-02-28T00:21:01;13.73;;;2.83;;
3959;SDS011;1994;48.640;8.894;2023-02-28T00:23:27;3.03;;;2.30;;
3959;SDS011;1994;48.640;8.894;2023-02-28T00:25:56;4.13;;;3.83;;
3959;SDS011;1994;48.640;8.894;2023-02-28T00:28:25;5.90;;;2.00;;
3959;SDS011;1994;48.640;8.894;2023-02-28T00:30:51;2.40;;;2.07;;
3959;SDS011;1994;48.640;8.894;2023-02-28T00:33:16;4.13;;;2.67;;
3959;SDS011;1994;48.640;8.894;2023-02-28T00:35:42;3.23;;;2.50;;
3959;SDS011;1994;48.640;8.894;2023-02-28T00:38:11;2.23;;;2.10;;
3959;SDS011;1994;48.640;8.894;2023-02-28T00:40:38;2.60;;;2.40;;
3959;SDS011;1994;48.640;8.894;2023-02-28T00:43:03;1.90;;;1.73;;
3959;SDS011;1994;48.640;8.894;2023-02-28T00:45:29;9.63;;;2.17;;
3959;SDS011;1994;48.640;8.894;2023-02-28T00:47:55;3.30;;;2.50;;
3959;SDS011;1994;48.640;8.894;2023-02-28T00:50:21;3.57;;;2.00;;
3959;SDS011;1994;48.640;8.894;2023-02-28T00:52:47;2.27;;;2.07;;
3959;SDS011;1994;48.640;8.894;2023-02-28T00:55:13;1.83;;;1.43;;
3959;SDS011;1994;48.640;8.894;2023-02-28T00:57:39;2.70;;;2.20;;
3959;SDS011;1994;48.640;8.894;2023-02-28T01:00:05;2.90;;;2.00;;
3959;SDS011;1994;48.640;8.894;2023-02-28T01:02:32;2.10;;;1.90;;
3959;SDS011;1994;48.640;8.894;2023-02-28T01:04:58;4.50;;;2.23;;
3959;SDS011;1994;48.640;8.894;2023-02-28T01:07:28;2.50;;;1.60;;
3959;SDS011;1994;48.640;8.894;2023-02-28T01:09:56;3.63;;;2.63;;
3959;SDS011;1994;48.640;8.894;2023-02-28T01:12:22;2.57;;;2.00;;
3959;SDS011;1994;48.640;8.894;2023-02-28T01:14:50;2.00;;;1.90;;
3959;SDS011;1994;48.640;8.894;2023-02-28T01:17:16;2.20;;;1.77;;
3959;SDS011;1994;48.640;8.894;2023-02-28T01:19:44;1.90;;;1.73;;
3959;SDS011;1994;48.640;8.894;2023-02-28T01:22:10;2.20;;;2.00;;
3959;SDS011;1994;48.640;8.894;2023-02-28T01:24:36;1.73;;;1.50;;
3959;SDS011;1994;48.640;8.894;2023-02-28T01:27:02;2.40;;;1.73;;
3959;SDS011;1994;48.640;8.894;2023-02-28T01:29:28;1.90;;;1.63;;
3959;SDS011;1994;48.640;8.894;2023-02-28T01:31:54;2.83;;;2.10;;
3959;SDS011;1994;48.640;8.894;2023-02-28T01:34:20;2.03;;;1.80;;
3959;SDS011;1994;48.640;8.894;2023-02-28T01:36:45;2.20;;;2.00;;
3959;SDS011;1994;48.640;8.894;2023-02-28T01:39:11;2.93;;;1.80;;
3959;SDS011;1994;48.640;8.894;2023-02-28T01:41:38;2.90;;;2.10;;
3959;SDS011;1994;48.640;8.894;2023-02-28T01:44:55;1.50;;;1.40;;
3959;SDS011;1994;48.640;8.894;2023-02-28T01:47:38;1.90;;;1.80;;
3959;SDS011;1994;48.640;8.894;2023-02-28T01:50:09;2.90;;;1.90;;
3959;SDS011;1994;48.640;8.894;2023-02-28T01:52:49;1.77;;;1.47;;
3959;SDS011;1994;48.640;8.894;2023-02-28T01:55:19;2.33;;;1.83;;
3959;SDS011;1994;48.640;8.894;2023-02-28T01:57:48;1.50;;;1.40;;
3959;SDS011;1994;48.640;8.894;2023-02-28T02:00:20;1.90;;;1.60;;
3959;SDS011;1994;48.640;8.894;2023-02-28T02:02:50;2.23;;;2.03;;
3959;SDS011;1994;48.640;8.894;2023-02-28T02:05:26;2.70;;;2.13;;
3959;SDS011;1994;48.640;8.894;2023-02-28T02:07:56;2.47;;;2.00;;
3959;SDS011;1994;48.640;8.894;2023-02-28T02:10:54;2.17;;;1.97;;
3959;SDS011;1994;48.640;8.894;2023-02-28T02:23:33;2.20;;;2.10;;
3959;SDS011;1994;48.640;8.894;2023-02-28T02:26:55;2.47;;;2.27;;
3959;SDS011;1994;48.640;8.894;2023-02-28T02:36:19;3.70;;;1.83;;
3959;SDS011;1994;48.640;8.894;2023-02-28T02:41:52;1.97;;;1.87;;
3959;SDS011;1994;48.640;8.894;2023-02-28T02:47:17;1.77;;;1.67;;
3959;SDS011;1994;48.640;8.894;2023-02-28T02:49:47;1.63;;;1.60;;
3959;SDS011;1994;48.640;8.894;2023-02-28T02:52:17;2.70;;;1.90;;
3959;SDS011;1994;48.640;8.894;2023-02-28T02:54:48;2.47;;;1.70;;
3959;SDS011;1994;48.640;8.894;2023-02-28T02:57:22;2.63;;;1.97;;
3959;SDS011;1994;48.640;8.894;2023-02-28T03:00:10;3.23;;;2.90;;
3959;SDS011;1994;48.640;8.894;2023-02-28T03:02:37;2.00;;;1.90;;
3959;SDS011;1994;48.640;8.894;2023-02-28T03:05:07;1.90;;;1.80;;
3959;SDS011;1994;48.640;8.894;2023-02-28T03:08:04;3.27;;;2.50;;
3959;SDS011;1994;48.640;8.894;2023-02-28T03:28:39;2.57;;;2.20;;
3959;SDS011;1994;48.640;8.894;2023-02-28T03:31:26;2.93;;;2.40;;
3959;SDS011;1994;48.640;8.894;2023-02-28T03:34:10;4.37;;;3.17;;
3959;SDS011;1994;48.640;8.894;2023-02-28T03:37:03;2.73;;;2.37;;
3959;SDS011;1994;48.640;8.894;2023-02-28T03:39:54;4.60;;;3.30;;
3959;SDS011;1994;48.640;8.894;2023-02-28T03:42:27;2.77;;;2.03;;
3959;SDS011;1994;48.640;8.894;2023-02-28T03:44:57;2.37;;;2.27;;
3959;SDS011;1994;48.640;8.894;2023-02-28T03:48:02;2.83;;;2.33;;
3959;SDS011;1994;48.640;8.894;2023-02-28T03:50:23;2.20;;;2.00;;
3959;SDS011;1994;48.640;8.894;2023-02-28T03:53:16;2.47;;;2.27;;
3959;SDS011;1994;48.640;8.894;2023-02-28T03:56:01;4.57;;;1.93;;
3959;SDS011;1994;48.640;8.894;2023-02-28T04:01:48;2.47;;;2.27;;
3959;SDS011;1994;48.640;8.894;2023-02-28T04:04:15;2.37;;;2.17;;
3959;SDS011;1994;48.640;8.894;2023-02-28T04:06:42;3.03;;;2.80;;
3959;SDS011;1994;48.640;8.894;2023-02-28T04:09:10;4.53;;;2.37;;
3959;SDS011;1994;48.640;8.894;2023-02-28T04:11:44;4.57;;;2.57;;
3959;SDS011;1994;48.640;8.894;2023-02-28T04:14:18;3.80;;;3.00;;
3959;SDS011;1994;48.640;8.894;2023-02-28T04:16:44;2.20;;;2.00;;
3959;SDS011;1994;48.640;8.894;2023-02-28T04:19:11;2.43;;;2.23;;
3959;SDS011;1994;48.640;8.894;2023-02-28T04:21:39;2.83;;;2.60;;
3959;SDS011;1994;48.640;8.894;2023-02-28T04:24:08;5.20;;;3.37;;
3959;SDS011;1994;48.640;8.894;2023-02-28T04:26:39;2.10;;;2.00;;
3959;SDS011;1994;48.640;8.894;2023-02-28T04:29:08;2.97;;;2.77;;
3959;SDS011;1994;48.640;8.894;2023-02-28T04:31:37;4.97;;;3.17;;
3959;SDS011;1994;48.640;8.894;2023-02-28T04:34:03;4.50;;;2.63;;
3959;SDS011;1994;48.640;8.894;2023-02-28T04:36:29;2.83;;;2.60;;
3959;SDS011;1994;48.640;8.894;2023-02-28T04:38:55;3.63;;;2.80;;
3959;SDS011;1994;48.640;8.894;2023-02-28T04:41:22;3.30;;;3.00;;
3959;SDS011;1994;48.640;8.894;2023-02-28T04:43:48;3.10;;;2.90;;
3959;SDS011;1994;48.640;8.894;2023-02-28T04:46:17;3.60;;;3.37;;
3959;SDS011;1994;48.640;8.894;2023-02-28T04:48:44;6.20;;;2.80;;
3959;SDS011;1994;48.640;8.894;2023-02-28T04:51:11;3.60;;;3.30;;
3959;SDS011;1994;48.640;8.894;2023-02-28T04:53:39;5.90;;;3.73;;
3959;SDS011;1994;48.640;8.894;2023-02-28T04:56:07;2.27;;;2.07;;
3959;SDS011;1994;48.640;8.894;2023-02-28T04:58:37;2.70;;;2.50;;
3959;SDS011;1994;48.640;8.894;2023-02-28T05:01:06;2.97;;;2.73;;
3959;SDS011;1994;48.640;8.894;2023-02-28T05:03:43;2.57;;;2.37;;
3959;SDS011;1994;48.640;8.894;2023-02-28T05:06:10;4.10;;;3.43;;
3959;SDS011;1994;48.640;8.894;2023-02-28T05:08:37;4.33;;;3.53;;
3959;SDS011;1994;48.640;8.894;2023-02-28T05:11:03;3.10;;;2.80;;
3959;SDS011;1994;48.640;8.894;2023-02-28T05:13:33;5.90;;;3.07;;
3959;SDS011;1994;48.640;8.894;2023-02-28T05:16:00;2.13;;;2.03;;
3959;SDS011;1994;48.640;8.894;2023-02-28T05:18:26;3.23;;;2.70;;
3959;SDS011;1994;48.640;8.894;2023-02-28T05:20:52;3.97;;;2.90;;
3959;SDS011;1994;48.640;8.894;2023-02-28T05:23:20;2.77;;;2.57;;
3959;SDS011;1994;48.640;8.894;2023-02-28T05:25:50;5.40;;;3.03;;
3959;SDS011;1994;48.640;8.894;2023-02-28T05:28:23;3.23;;;2.87;;
3959;SDS011;1994;48.640;8.894;2023-02-28T05:30:49;6.50;;;2.93;;
3959;SDS011;1994;48.640;8.894;2023-02-28T05:33:15;2.73;;;2.50;;
3959;SDS011;1994;48.640;8.894;2023-02-28T05:35:41;3.53;;;3.07;;
3959;SDS011;1994;48.640;8.894;2023-02-28T05:38:10;4.50;;;3.20;;
3959;SDS011;1994;48.640;8.894;2023-02-28T05:40:38;3.80;;;3.30;;
3959;SDS011;1994;48.640;8.894;2023-02-28T05:43:05;4.20;;;2.87;;
3959;SDS011;1994;48.640;8.894;2023-02-28T05:45:35;6.27;;;3.70;;
3959;SDS011;1994;48.640;8.894;2023-02-28T05:48:01;11.17;;;4.63;;
3959;SDS011;1994;48.640;8.894;2023-02-28T05:50:26;8.87;;;5.10;;
3959;SDS011;1994;48.640;8.894;2023-02-28T05:52:52;11.23;;;6.00;;
3959;SDS011;1994;48.640;8.894;2023-02-28T05:55:18;7.03;;;4.87;;
3959;SDS011;1994;48.640;8.894;2023-02-28T05:57:44;5.43;;;4.17;;
3959;SDS011;1994;48.640;8.894;2023-02-28T06:00:10;5.10;;;3.47;;
3959;SDS011;1994;48.640;8.894;2023-02-28T06:02:40;5.07;;;3.37;;
3959;SDS011;1994;48.640;8.894;2023-02-28T06:05:13;7.93;;;4.03;;
3959;SDS011;1994;48.640;8.894;2023-02-28T06:07:41;6.67;;;3.47;;
3959;SDS011;1994;48.640;8.894;2023-02-28T06:10:08;7.37;;;4.73;;
3959;SDS011;1994;48.640;8.894;2023-02-28T06:12:37;7.50;;;5.00;;
3959;SDS011;1994;48.640;8.894;2023-02-28T06:15:03;11.87;;;5.80;;
3959;SDS011;1994;48.640;8.894;2023-02-28T06:17:29;5.40;;;4.60;;
3959;SDS011;1994;48.640;8.894;2023-02-28T06:19:55;12.03;;;6.80;;
3959;SDS011;1994;48.640;8.894;2023-02-28T06:22:21;11.57;;;5.23;;
3959;SDS011;1994;48.640;8.894;2023-02-28T06:24:47;5.90;;;5.03;;
3959;SDS011;1994;48.640;8.894;2023-02-28T06:27:13;8.47;;;5.00;;
3959;SDS011;1994;48.640;8.894;2023-02-28T06:29:38;12.03;;;6.53;;
3959;SDS011;1994;48.640;8.894;2023-02-28T06:32:05;7.33;;;4.03;;
3959;SDS011;1994;48.640;8.894;2023-02-28T06:34:32;3.60;;;3.30;;
3959;SDS011;1994;48.640;8.894;2023-02-28T06:37:01;5.80;;;5.00;;
3959;SDS011;1994;48.640;8.894;2023-02-28T06:39:28;9.07;;;4.87;;
3959;SDS011;1994;48.640;8.894;2023-02-28T06:41:55;7.83;;;4.40;;
3959;SDS011;1994;48.640;8.894;2023-02-28T06:44:21;7.17;;;5.13;;
3959;SDS011;1994;48.640;8.894;2023-02-28T06:46:47;9.20;;;4.27;;
3959;SDS011;1994;48.640;8.894;2023-02-28T06:49:13;6.00;;;4.40;;
3959;SDS011;1994;48.640;8.894;2023-02-28T06:51:41;20.63;;;6.70;;
3959;SDS011;1994;48.640;8.894;2023-02-28T06:54:12;15.37;;;7.13;;
3959;SDS011;1994;48.640;8.894;2023-02-28T06:56:38;24.57;;;12.57;;
3959;SDS011;1994;48.640;8.894;2023-02-28T06:59:04;11.00;;;5.87;;
3959;SDS011;1994;48.640;8.894;2023-02-28T07:01:30;12.20;;;8.60;;
3959;SDS011;1994;48.640;8.894;2023-02-28T07:03:57;11.40;;;5.80;;
3959;SDS011;1994;48.640;8.894;2023-02-28T07:06:25;7.60;;;4.90;;
3959;SDS011;1994;48.640;8.894;2023-02-28T07:08:52;10.63;;;4.97;;
3959;SDS011;1994;48.640;8.894;2023-02-28T07:11:22;6.07;;;4.70;;
3959;SDS011;1994;48.640;8.894;2023-02-28T07:13:52;6.87;;;3.60;;
3959;SDS011;1994;48.640;8.894;2023-02-28T07:16:20;7.70;;;4.47;;
3959;SDS011;1994;48.640;8.894;2023-02-28T07:18:46;8.20;;;3.90;;
3959;SDS011;1994;48.640;8.894;2023-02-28T07:21:13;4.93;;;3.30;;
3959;SDS011;1994;48.640;8.894;2023-02-28T07:23:40;6.40;;;4.30;;
3959;SDS011;1994;48.640;8.894;2023-02-28T07:26:07;9.60;;;5.10;;
3959;SDS011;1994;48.640;8.894;2023-02-28T07:28:39;10.47;;;6.00;;
3959;SDS011;1994;48.640;8.894;2023-02-28T07:31:07;16.23;;;7.67;;
3959;SDS011;1994;48.640;8.894;2023-02-28T07:33:34;11.43;;;7.50;;
3959;SDS011;1994;48.640;8.894;2023-02-28T07:36:05;14.83;;;7.83;;
3959;SDS011;1994;48.640;8.894;2023-02-28T07:38:40;7.33;;;5.40;;
3959;SDS011;1994;48.640;8.894;2023-02-28T07:41:08;8.00;;;5.40;;
3959;SDS011;1994;48.640;8.894;2023-02-28T07:43:35;6.03;;;5.43;;
3959;SDS011;1994;48.640;8.894;2023-02-28T07:46:05;24.93;;;11.80;;
3959;SDS011;1994;48.640;8.894;2023-02-28T07:48:37;28.30;;;12.10;;
3959;SDS011;1994;48.640;8.894;2023-02-28T07:51:03;25.23;;;11.13;;
3959;SDS011;1994;48.640;8.894;2023-02-28T07:53:29;15.23;;;8.37;;
3959;SDS011;1994;48.640;8.894;2023-02-28T07:55:59;9.50;;;5.73;;
3959;SDS011;1994;48.640;8.894;2023-02-28T07:58:27;10.90;;;5.43;;
3959;SDS011;1994;48.640;8.894;2023-02-28T08:00:54;7.63;;;5.33;;
3959;SDS011;1994;48.640;8.894;2023-02-28T08:03:22;6.67;;;5.40;;
3959;SDS011;1994;48.640;8.894;2023-02-28T08:05:49;4.97;;;4.47;;
3959;SDS011;1994;48.640;8.894;2023-02-28T08:08:17;11.20;;;6.30;;
3959;SDS011;1994;48.640;8.894;2023-02-28T08:10:43;13.60;;;6.73;;
3959;SDS011;1994;48.640;8.894;2023-02-28T08:13:09;11.17;;;5.83;;
3959;SDS011;1994;48.640;8.894;2023-02-28T08:15:35;8.90;;;5.27;;
3959;SDS011;1994;48.640;8.894;2023-02-28T08:18:01;7.53;;;4.77;;
3959;SDS011;1994;48.640;8.894;2023-02-28T08:20:27;6.63;;;5.03;;
3959;SDS011;1994;48.640;8.894;2023-02-28T08:22:53;5.23;;;4.83;;
3959;SDS011;1994;48.640;8.894;2023-02-28T08:25:19;4.63;;;4.10;;
3959;SDS011;1994;48.640;8.894;2023-02-28T08:27:45;6.50;;;4.93;;
3959;SDS011;1994;48.640;8.894;2023-02-28T08:30:12;6.20;;;5.10;;
3959;SDS011;1994;48.640;8.894;2023-02-28T08:32:39;5.37;;;4.73;;
3959;SDS011;1994;48.640;8.894;2023-02-28T08:35:06;5.60;;;5.00;;
3959;SDS011;1994;48.640;8.894;2023-02-28T08:37:34;6.37;;;4.70;;
3959;SDS011;1994;48.640;8.894;2023-02-28T08:40:00;8.53;;;4.80;;
3959;SDS011;1994;48.640;8.894;2023-02-28T08:42:26;7.10;;;6.30;;
3959;SDS011;1994;48.640;8.894;2023-02-28T08:44:52;14.23;;;5.20;;
3959;SDS011;1994;48.640;8.894;2023-02-28T08:47:18;11.20;;;7.00;;
3959;SDS011;1994;48.640;8.894;2023-02-28T08:49:44;12.23;;;5.30;;
3959;SDS011;1994;48.640;8.894;2023-02-28T08:52:10;6.83;;;5.20;;
3959;SDS011;1994;48.640;8.894;2023-02-28T08:54:36;9.80;;;6.23;;
3959;SDS011;1994;48.640;8.894;2023-02-28T08:57:02;7.00;;;5.00;;
3959;SDS011;1994;48.640;8.894;2023-02-28T08:59:28;7.97;;;4.50;;
3959;SDS011;1994;48.640;8.894;2023-02-28T09:01:55;5.70;;;4.23;;
3959;SDS011;1994;48.640;8.894;2023-02-28T09:04:21;16.23;;;7.40;;
3959;SDS011;1994;48.640;8.894;2023-02-28T09:06:47;8.60;;;6.00;;
3959;SDS011;1994;48.640;8.894;2023-02-28T09:09:13;12.30;;;7.00;;
3959;SDS011;1994;48.640;8.894;2023-02-28T09:11:40;8.83;;;6.23;;
3959;SDS011;1994;48.640;8.894;2023-02-28T09:14:06;8.60;;;6.17;;
3959;SDS011;1994;48.640;8.894;2023-02-28T09:16:32;23.17;;;11.23;;
3959;SDS011;1994;48.640;8.894;2023-02-28T09:18:59;9.93;;;6.63;;
3959;SDS011;1994;48.640;8.894;2023-02-28T09:21:25;9.93;;;4.33;;
3959;SDS011;1994;48.640;8.894;2023-02-28T09:23:51;7.17;;;5.80;;
3959;SDS011;1994;48.640;8.894;2023-02-28T09:26:23;13.00;;;7.23;;
3959;SDS011;1994;48.640;8.894;2023-02-28T09:28:52;17.33;;;8.00;;
3959;SDS011;1994;48.640;8.894;2023-02-28T09:31:20;11.10;;;6.83;;
3959;SDS011;1994;48.640;8.894;2023-02-28T09:33:50;12.60;;;6.30;;
3959;SDS011;1994;48.640;8.894;2023-02-28T09:36:21;7.40;;;5.83;;
3959;SDS011;1994;48.640;8.894;2023-02-28T09:38:49;8.43;;;5.70;;
3959;SDS011;1994;48.640;8.894;2023-02-28T09:41:24;8.37;;;5.77;;
3959;SDS011;1994;48.640;8.894;2023-02-28T09:43:56;8.50;;;5.47;;
3959;SDS011;1994;48.640;8.894;2023-02-28T09:49:08;8.77;;;5.73;;
3959;SDS011;1994;48.640;8.894;2023-02-28T09:54:24;13.30;;;6.53;;
3959;SDS011;1994;48.640;8.894;2023-02-28T09:57:11;12.50;;;6.00;;
3959;SDS011;1994;48.640;8.894;2023-02-28T10:00:03;10.30;;;5.53;;
3959;SDS011;1994;48.640;8.894;2023-02-28T10:02:46;6.77;;;5.57;;
3959;SDS011;1994;48.640;8.894;2023-02-28T10:05:36;9.30;;;5.47;;
3959;SDS011;1994;48.640;8.894;2023-02-28T10:08:13;7.33;;;5.23;;
3959;SDS011;1994;48.640;8.894;2023-02-28T10:16:01;6.60;;;4.90;;
3959;SDS011;1994;48.640;8.894;2023-02-28T10:18:40;11.50;;;6.70;;
3959;SDS011;1994;48.640;8.894;2023-02-28T10:21:21;7.70;;;5.37;;
3959;SDS011;1994;48.640;8.894;2023-02-28T10:24:02;6.70;;;5.40;;
3959;SDS011;1994;48.640;8.894;2023-02-28T10:29:44;6.77;;;5.07;;
3959;SDS011;1994;48.640;8.894;2023-02-28T10:32:14;7.93;;;5.73;;
3959;SDS011;1994;48.640;8.894;2023-02-28T10:34:43;7.53;;;6.10;;
3959;SDS011;1994;48.640;8.894;2023-02-28T10:37:12;9.00;;;5.23;;
3959;SDS011;1994;48.640;8.894;2023-02-28T10:42:04;5.23;;;4.30;;
3959;SDS011;1994;48.640;8.894;2023-02-28T10:44:44;9.60;;;6.50;;
3959;SDS011;1994;48.640;8.894;2023-02-28T10:47:16;10.80;;;6.27;;
3959;SDS011;1994;48.640;8.894;2023-02-28T10:49:48;10.10;;;6.90;;
3959;SDS011;1994;48.640;8.894;2023-02-28T10:52:39;10.00;;;5.80;;
3959;SDS011;1994;48.640;8.894;2023-02-28T10:55:22;9.67;;;5.10;;
3959;SDS011;1994;48.640;8.894;2023-02-28T10:57:51;8.60;;;6.83;;
3959;SDS011;1994;48.640;8.894;2023-02-28T11:00:22;7.33;;;6.00;;
3959;SDS011;1994;48.640;8.894;2023-02-28T11:02:50;10.00;;;6.97;;
3959;SDS011;1994;48.640;8.894;2023-02-28T11:05:32;9.30;;;6.70;;
3959;SDS011;1994;48.640;8.894;2023-02-28T11:08:12;9.00;;;4.87;;
3959;SDS011;1994;48.640;8.894;2023-02-28T11:10:45;8.83;;;6.30;;
3959;SDS011;1994;48.640;8.894;2023-02-28T11:13:19;9.53;;;6.50;;
3959;SDS011;1994;48.640;8.894;2023-02-28T11:15:58;9.63;;;6.00;;
3959;SDS011;1994;48.640;8.894;2023-02-28T11:18:34;8.90;;;6.37;;
3959;SDS011;1994;48.640;8.894;2023-02-28T11:21:04;7.10;;;5.67;;
3959;SDS011;1994;48.640;8.894;2023-02-28T11:23:32;7.50;;;4.93;;
3959;SDS011;1994;48.640;8.894;2023-02-28T11:26:02;8.83;;;6.03;;
3959;SDS011;1994;48.640;8.894;2023-02-28T11:28:37;9.70;;;6.60;;
3959;SDS011;1994;48.640;8.894;2023-02-28T11:33:54;7.57;;;6.77;;
3959;SDS011;1994;48.640;8.894;2023-02-28T11:36:25;13.73;;;6.73;;
3959;SDS011;1994;48.640;8.894;2023-02-28T11:38:54;6.50;;;4.80;;
3959;SDS011;1994;48.640;8.894;2023-02-28T11:50:47;6.00;;;4.80;;
3959;SDS011;1994;48.640;8.894;2023-02-28T11:56:54;4.60;;;4.10;;
3959;SDS011;1994;48.640;8.894;2023-02-28T11:59:33;8.83;;;5.80;;
3959;SDS011;1994;48.640;8.894;2023-02-28T12:20:05;7.37;;;5.37;;
3959;SDS011;1994;48.640;8.894;2023-02-28T12:26:27;12.63;;;5.53;;
3959;SDS011;1994;48.640;8.894;2023-02-28T12:29:02;7.90;;;5.73;;
3959;SDS011;1994;48.640;8.894;2023-02-28T12:34:51;5.83;;;5.23;;
3959;SDS011;1994;48.640;8.894;2023-02-28T12:40:47;6.97;;;5.43;;
3959;SDS011;1994;48.640;8.894;2023-02-28T12:43:34;17.53;;;4.97;;
3959;SDS011;1994;48.640;8.894;2023-02-28T12:46:17;6.70;;;5.50;;
3959;SDS011;1994;48.640;8.894;2023-02-28T12:48:58;9.73;;;6.10;;
3959;SDS011;1994;48.640;8.894;2023-02-28T12:51:33;7.47;;;5.97;;
3959;SDS011;1994;48.640;8.894;2023-02-28T12:54:07;9.30;;;6.10;;
3959;SDS011;1994;48.640;8.894;2023-02-28T12:57:11;7.77;;;6.10;;
3959;SDS011;1994;48.640;8.894;2023-02-28T13:00:14;9.57;;;7.10;;
3959;SDS011;1994;48.640;8.894;2023-02-28T13:03:45;9.50;;;7.00;;
3959;SDS011;1994;48.640;8.894;2023-02-28T13:19:34;6.60;;;5.50;;
3959;SDS011;1994;48.640;8.894;2023-02-28T13:22:37;6.67;;;6.07;;
3959;SDS011;1994;48.640;8.894;2023-02-28T13:28:11;10.87;;;7.23;;
3959;SDS011;1994;48.640;8.894;2023-02-28T13:31:01;13.57;;;8.37;;
3959;SDS011;1994;48.640;8.894;2023-02-28T13:34:04;7.83;;;6.00;;
3959;SDS011;1994;48.640;8.894;2023-02-28T13:36:25;18.70;;;11.37;;
3959;SDS011;1994;48.640;8.894;2023-02-28T13:39:00;9.07;;;6.53;;
3959;SDS011;1994;48.640;8.894;2023-02-28T13:47:39;7.20;;;6.30;;
3959;SDS011;1994;48.640;8.894;2023-02-28T13:56:33;7.67;;;6.20;;
3959;SDS011;1994;48.640;8.894;2023-02-28T14:07:00;14.40;;;6.70;;
3959;SDS011;1994;48.640;8.894;2023-02-28T14:09:29;7.23;;;5.90;;
3959;SDS011;1994;48.640;8.894;2023-02-28T14:15:28;7.83;;;5.60;;
3959;SDS011;1994;48.640;8.894;2023-02-28T14:18:23;11.40;;;6.60;;
3959;SDS011;1994;48.640;8.894;2023-02-28T14:21:01;7.73;;;6.10;;
3959;SDS011;1994;48.640;8.894;2023-02-28T14:24:42;7.20;;;6.20;;
3959;SDS011;1994;48.640;8.894;2023-02-28T14:30:24;6.73;;;5.50;;
3959;SDS011;1994;48.640;8.894;2023-02-28T14:33:14;10.37;;;6.60;;
3959;SDS011;1994;48.640;8.894;2023-02-28T14:38:52;12.40;;;8.37;;
3959;SDS011;1994;48.640;8.894;2023-02-28T14:41:30;8.70;;;5.60;;
3959;SDS011;1994;48.640;8.894;2023-02-28T14:44:03;11.20;;;7.90;;
3959;SDS011;1994;48.640;8.894;2023-02-28T14:46:49;18.80;;;11.90;;
3959;SDS011;1994;48.640;8.894;2023-02-28T14:49:29;13.40;;;10.40;;
3959;SDS011;1994;48.640;8.894;2023-02-28T14:52:07;10.87;;;7.30;;
3959;SDS011;1994;48.640;8.894;2023-02-28T14:54:53;13.57;;;10.60;;
3959;SDS011;1994;48.640;8.894;2023-02-28T14:57:39;14.83;;;7.40;;
3959;SDS011;1994;48.640;8.894;2023-02-28T15:02:56;9.43;;;8.00;;
3959;SDS011;1994;48.640;8.894;2023-02-28T15:05:42;7.87;;;6.60;;
3959;SDS011;1994;48.640;8.894;2023-02-28T15:08:16;11.10;;;7.43;;
3959;SDS011;1994;48.640;8.894;2023-02-28T15:10:49;8.40;;;5.97;;
3959;SDS011;1994;48.640;8.894;2023-02-28T15:13:23;8.77;;;5.30;;
3959;SDS011;1994;48.640;8.894;2023-02-28T15:21:37;8.03;;;5.90;;
3959;SDS011;1994;48.640;8.894;2023-02-28T15:27:05;9.30;;;6.23;;
3959;SDS011;1994;48.640;8.894;2023-02-28T15:29:44;8.03;;;6.17;;
3959;SDS011;1994;48.640;8.894;2023-02-28T15:32:24;4.90;;;4.40;;
3959;SDS011;1994;48.640;8.894;2023-02-28T15:34:54;7.40;;;5.27;;
3959;SDS011;1994;48.640;8.894;2023-02-28T15:37:26;6.27;;;5.67;;
3959;SDS011;1994;48.640;8.894;2023-02-28T15:42:37;10.93;;;6.20;;
3959;SDS011;1994;48.640;8.894;2023-02-28T15:45:03;8.80;;;6.03;;
3959;SDS011;1994;48.640;8.894;2023-02-28T15:47:30;10.50;;;5.40;;
3959;SDS011;1994;48.640;8.894;2023-02-28T15:49:57;7.83;;;5.93;;
3959;SDS011;1994;48.640;8.894;2023-02-28T15:52:28;9.80;;;6.50;;
3959;SDS011;1994;48.640;8.894;2023-02-28T15:55:19;8.53;;;6.20;;
3959;SDS011;1994;48.640;8.894;2023-02-28T15:57:53;6.37;;;4.80;;
3959;SDS011;1994;48.640;8.894;2023-02-28T16:00:24;9.70;;;6.53;;
3959;SDS011;1994;48.640;8.894;2023-02-28T16:02:52;6.80;;;5.73;;
3959;SDS011;1994;48.640;8.894;2023-02-28T16:05:20;8.27;;;5.87;;
3959;SDS011;1994;48.640;8.894;2023-02-28T16:07:55;9.83;;;5.67;;
3959;SDS011;1994;48.640;8.894;2023-02-28T16:10:36;15.97;;;8.60;;
3959;SDS011;1994;48.640;8.894;2023-02-28T16:13:02;8.47;;;6.73;;
3959;SDS011;1994;48.640;8.894;2023-02-28T16:15:28;6.40;;;4.87;;
3959;SDS011;1994;48.640;8.894;2023-02-28T16:18:00;7.57;;;5.73;;
3959;SDS011;1994;48.640;8.894;2023-02-28T16:20:29;9.43;;;6.10;;
3959;SDS011;1994;48.640;8.894;2023-02-28T16:22:56;7.47;;;5.20;;
3959;SDS011;1994;48.640;8.894;2023-02-28T16:25:29;7.40;;;6.53;;
3959;SDS011;1994;48.640;8.894;2023-02-28T16:28:05;8.67;;;5.33;;
3959;SDS011;1994;48.640;8.894;2023-02-28T16:30:57;6.83;;;5.47;;
3959;SDS011;1994;48.640;8.894;2023-02-28T16:33:27;6.20;;;5.07;;
3959;SDS011;1994;48.640;8.894;2023-02-28T16:35:54;5.77;;;5.17;;
3959;SDS011;1994;48.640;8.894;2023-02-28T16:38:25;7.17;;;5.57;;
3959;SDS011;1994;48.640;8.894;2023-02-28T16:40:59;8.70;;;6.57;;
3959;SDS011;1994;48.640;8.894;2023-02-28T16:43:25;7.37;;;5.70;;
3959;SDS011;1994;48.640;8.894;2023-02-28T16:45:54;9.83;;;6.00;;
3959;SDS011;1994;48.640;8.894;2023-02-28T16:48:23;12.50;;;6.30;;
3959;SDS011;1994;48.640;8.894;2023-02-28T16:50:49;11.37;;;7.87;;
3959;SDS011;1994;48.640;8.894;2023-02-28T16:53:16;10.40;;;6.03;;
3959;SDS011;1994;48.640;8.894;2023-02-28T16:55:41;9.70;;;7.90;;
3959;SDS011;1994;48.640;8.894;2023-02-28T16:58:10;9.17;;;8.27;;
3959;SDS011;1994;48.640;8.894;2023-02-28T17:00:40;6.83;;;6.00;;
3959;SDS011;1994;48.640;8.894;2023-02-28T17:03:10;17.77;;;9.50;;
3959;SDS011;1994;48.640;8.894;2023-02-28T17:05:53;13.77;;;8.37;;
3959;SDS011;1994;48.640;8.894;2023-02-28T17:08:19;9.90;;;6.77;;
3959;SDS011;1994;48.640;8.894;2023-02-28T17:10:45;11.53;;;6.10;;
3959;SDS011;1994;48.640;8.894;2023-02-28T17:13:14;8.70;;;6.67;;
3959;SDS011;1994;48.640;8.894;2023-02-28T17:15:40;7.30;;;6.27;;
3959;SDS011;1994;48.640;8.894;2023-02-28T17:18:06;13.50;;;7.87;;
3959;SDS011;1994;48.640;8.894;2023-02-28T17:20:38;11.67;;;7.40;;
3959;SDS011;1994;48.640;8.894;2023-02-28T17:23:06;9.00;;;6.80;;
3959;SDS011;1994;48.640;8.894;2023-02-28T17:25:32;8.87;;;6.17;;
3959;SDS011;1994;48.640;8.894;2023-02-28T17:27:58;17.43;;;7.97;;
3959;SDS011;1994;48.640;8.894;2023-02-28T17:30:25;11.10;;;7.60;;
3959;SDS011;1994;48.640;8.894;2023-02-28T17:32:52;11.90;;;8.33;;
3959;SDS011;1994;48.640;8.894;2023-02-28T17:35:19;9.90;;;7.70;;
3959;SDS011;1994;48.640;8.894;2023-02-28T17:37:45;15.23;;;7.93;;
3959;SDS011;1994;48.640;8.894;2023-02-28T17:40:15;10.70;;;7.67;;
3959;SDS011;1994;48.640;8.894;2023-02-28T17:42:46;10.20;;;8.17;;
3959;SDS011;1994;48.640;8.894;2023-02-28T17:45:12;12.70;;;8.20;;
3959;SDS011;1994;48.640;8.894;2023-02-28T17:47:39;12.30;;;8.57;;
3959;SDS011;1994;48.640;8.894;2023-02-28T17:50:11;19.10;;;11.57;;
3959;SDS011;1994;48.640;8.894;2023-02-28T17:52:44;26.83;;;15.47;;
3959;SDS011;1994;48.640;8.894;2023-02-28T17:55:11;24.63;;;15.13;;
3959;SDS011;1994;48.640;8.894;2023-02-28T17:57:37;23.30;;;12.40;;
3959;SDS011;1994;48.640;8.894;2023-02-28T18:00:04;25.13;;;11.80;;
3959;SDS011;1994;48.640;8.894;2023-02-28T18:02:32;19.77;;;12.67;;
3959;SDS011;1994;48.640;8.894;2023-02-28T18:04:58;18.47;;;10.37;;
3959;SDS011;1994;48.640;8.894;2023-02-28T18:07:24;16.87;;;11.00;;
3959;SDS011;1994;48.640;8.894;2023-02-28T18:09:52;20.83;;;12.60;;
3959;SDS011;1994;48.640;8.894;2023-02-28T18:12:21;18.03;;;12.70;;
3959;SDS011;1994;48.640;8.894;2023-02-28T18:14:47;21.00;;;14.90;;
3959;SDS011;1994;48.640;8.894;2023-02-28T18:17:13;14.87;;;10.63;;
3959;SDS011;1994;48.640;8.894;2023-02-28T18:19:39;13.97;;;10.13;;
3959;SDS011;1994;48.640;8.894;2023-02-28T18:22:05;17.57;;;11.70;;